Brownhills, United Kingdom
Current Conditions -  °F | °C
As of 8:50 AM on Wednesday 28 Jan 2015 (Local Time) from EGBB Reporting Station
Rain Showers Rain Showers  
Wind Chill: 43°   Ceiling: 2300
Heat Index: 48°   Visibility: 6mi
Dew Point: 45°   Wind: 14mph
Humidity: 87%   Direction: 230°SW
Pressure: 29.47"   Gusts: NA
Location:  52.63°N, 1.93°W
Report Text: EGBB 280850Z 23012KT 200V270 9999 VCSH FEW008 BKN023 BKN028 09/07 Q0998
Loading
Personal Weather Stations






























Interactive Weather Map New forecast layout! Learn more

10-Day Weather Forecast

Advertisements
Track Severe Weather on mobile